Strawberry, Arkansas
Current Conditions -  °F | °C
As of 6:35 AM on Saturday 25 Oct 2014 (Local Time) from KARG Reporting Station
Clear Clear  
Wind Chill: 55°   Ceiling: Unl
Heat Index: 55°   Visibility: 7mi
Dew Point: 52°   Wind: 5mph
Humidity: 88%   Direction: 220°SW
Pressure: 30.06"   Gusts: NA
Location:  35.97°N, 91.32°W
Report Text: KARG 251135Z AUTO 22004KT 7SM CLR 13/11 A3006 RMK AO1
Loading
Personal Weather Stations






























Interactive Weather Map
Tropical Storm Tracking
New forecast layout! Learn more

10-Day Weather Forecast

Advertisements
Track Severe Weather on mobile